sensor_id;sensor_type;location;lat;lon;timestamp;P1;durP1;ratioP1;P2;durP2;ratioP2
11537;SDS011;50159;49.426;11.182;2023-07-30T00:02:22;1.70;;;1.63;;
11537;SDS011;50159;49.426;11.182;2023-07-30T00:04:49;1.90;;;1.80;;
11537;SDS011;50159;49.426;11.182;2023-07-30T00:07:16;1.90;;;1.90;;
11537;SDS011;50159;49.426;11.182;2023-07-30T00:09:43;2.00;;;1.90;;
11537;SDS011;50159;49.426;11.182;2023-07-30T00:12:10;1.50;;;1.50;;
11537;SDS011;50159;49.426;11.182;2023-07-30T00:14:37;2.10;;;2.00;;
11537;SDS011;50159;49.426;11.182;2023-07-30T00:17:04;2.20;;;2.10;;
11537;SDS011;50159;49.426;11.182;2023-07-30T00:19:31;1.90;;;1.90;;
11537;SDS011;50159;49.426;11.182;2023-07-30T00:21:57;2.03;;;1.90;;
11537;SDS011;50159;49.426;11.182;2023-07-30T00:24:24;2.10;;;2.07;;
11537;SDS011;50159;49.426;11.182;2023-07-30T00:26:51;1.77;;;1.77;;
11537;SDS011;50159;49.426;11.182;2023-07-30T00:29:18;2.10;;;1.83;;
11537;SDS011;50159;49.426;11.182;2023-07-30T00:31:45;1.70;;;1.70;;
11537;SDS011;50159;49.426;11.182;2023-07-30T00:34:12;1.77;;;1.67;;
11537;SDS011;50159;49.426;11.182;2023-07-30T00:36:39;2.00;;;1.90;;
11537;SDS011;50159;49.426;11.182;2023-07-30T00:39:06;2.07;;;1.97;;
11537;SDS011;50159;49.426;11.182;2023-07-30T00:41:32;1.83;;;1.73;;
11537;SDS011;50159;49.426;11.182;2023-07-30T00:43:59;2.20;;;1.97;;
11537;SDS011;50159;49.426;11.182;2023-07-30T00:46:26;1.53;;;1.53;;
11537;SDS011;50159;49.426;11.182;2023-07-30T00:48:53;1.70;;;1.70;;
11537;SDS011;50159;49.426;11.182;2023-07-30T00:51:20;1.50;;;1.50;;
11537;SDS011;50159;49.426;11.182;2023-07-30T00:53:47;1.50;;;1.50;;
11537;SDS011;50159;49.426;11.182;2023-07-30T00:56:14;1.67;;;1.67;;
11537;SDS011;50159;49.426;11.182;2023-07-30T00:58:43;1.53;;;1.53;;
11537;SDS011;50159;49.426;11.182;2023-07-30T01:01:14;1.87;;;1.87;;
11537;SDS011;50159;49.426;11.182;2023-07-30T01:03:41;1.60;;;1.60;;
11537;SDS011;50159;49.426;11.182;2023-07-30T01:06:08;1.90;;;1.80;;
11537;SDS011;50159;49.426;11.182;2023-07-30T01:08:36;1.80;;;1.80;;
11537;SDS011;50159;49.426;11.182;2023-07-30T01:11:03;1.57;;;1.57;;
11537;SDS011;50159;49.426;11.182;2023-07-30T01:13:31;1.73;;;1.73;;
11537;SDS011;50159;49.426;11.182;2023-07-30T01:16:01;1.90;;;1.80;;
11537;SDS011;50159;49.426;11.182;2023-07-30T01:18:29;2.07;;;2.07;;
11537;SDS011;50159;49.426;11.182;2023-07-30T01:20:59;2.00;;;2.00;;
11537;SDS011;50159;49.426;11.182;2023-07-30T01:23:26;1.90;;;1.80;;
11537;SDS011;50159;49.426;11.182;2023-07-30T01:25:57;1.87;;;1.77;;
11537;SDS011;50159;49.426;11.182;2023-07-30T01:28:41;1.80;;;1.80;;
11537;SDS011;50159;49.426;11.182;2023-07-30T01:31:14;2.80;;;2.43;;
11537;SDS011;50159;49.426;11.182;2023-07-30T01:33:46;2.00;;;1.90;;
11537;SDS011;50159;49.426;11.182;2023-07-30T01:36:18;2.40;;;2.03;;
11537;SDS011;50159;49.426;11.182;2023-07-30T01:38:46;2.13;;;2.00;;
11537;SDS011;50159;49.426;11.182;2023-07-30T01:41:15;2.93;;;2.60;;
11537;SDS011;50159;49.426;11.182;2023-07-30T01:43:42;2.23;;;2.13;;
11537;SDS011;50159;49.426;11.182;2023-07-30T01:46:09;2.30;;;2.20;;
11537;SDS011;50159;49.426;11.182;2023-07-30T01:48:36;2.30;;;2.20;;
11537;SDS011;50159;49.426;11.182;2023-07-30T01:51:03;2.50;;;2.33;;
11537;SDS011;50159;49.426;11.182;2023-07-30T01:53:29;2.30;;;2.20;;
11537;SDS011;50159;49.426;11.182;2023-07-30T01:55:56;2.30;;;2.20;;
11537;SDS011;50159;49.426;11.182;2023-07-30T01:58:23;2.13;;;2.03;;
11537;SDS011;50159;49.426;11.182;2023-07-30T02:00:50;2.10;;;2.00;;
11537;SDS011;50159;49.426;11.182;2023-07-30T02:03:16;2.47;;;2.30;;
11537;SDS011;50159;49.426;11.182;2023-07-30T02:05:44;2.00;;;1.90;;
11537;SDS011;50159;49.426;11.182;2023-07-30T02:08:10;2.37;;;2.27;;
11537;SDS011;50159;49.426;11.182;2023-07-30T02:10:39;1.87;;;1.77;;
11537;SDS011;50159;49.426;11.182;2023-07-30T02:13:06;2.03;;;1.93;;
11537;SDS011;50159;49.426;11.182;2023-07-30T02:15:33;2.53;;;2.40;;
11537;SDS011;50159;49.426;11.182;2023-07-30T02:17:59;2.10;;;2.10;;
11537;SDS011;50159;49.426;11.182;2023-07-30T02:20:26;2.70;;;2.60;;
11537;SDS011;50159;49.426;11.182;2023-07-30T02:22:53;2.50;;;2.40;;
11537;SDS011;50159;49.426;11.182;2023-07-30T02:25:20;3.07;;;2.77;;
11537;SDS011;50159;49.426;11.182;2023-07-30T02:27:47;2.50;;;2.40;;
11537;SDS011;50159;49.426;11.182;2023-07-30T02:30:14;2.80;;;2.60;;
11537;SDS011;50159;49.426;11.182;2023-07-30T02:32:41;2.40;;;2.30;;
11537;SDS011;50159;49.426;11.182;2023-07-30T02:35:08;2.37;;;2.27;;
11537;SDS011;50159;49.426;11.182;2023-07-30T02:37:35;2.10;;;2.00;;
11537;SDS011;50159;49.426;11.182;2023-07-30T02:40:01;3.10;;;3.00;;
11537;SDS011;50159;49.426;11.182;2023-07-30T02:42:31;2.57;;;2.47;;
11537;SDS011;50159;49.426;11.182;2023-07-30T02:44:57;2.73;;;2.57;;
11537;SDS011;50159;49.426;11.182;2023-07-30T02:47:24;2.53;;;2.43;;
11537;SDS011;50159;49.426;11.182;2023-07-30T02:49:51;2.97;;;2.77;;
11537;SDS011;50159;49.426;11.182;2023-07-30T02:52:18;2.70;;;2.60;;
11537;SDS011;50159;49.426;11.182;2023-07-30T02:54:45;3.10;;;2.90;;
11537;SDS011;50159;49.426;11.182;2023-07-30T02:57:11;4.60;;;3.27;;
11537;SDS011;50159;49.426;11.182;2023-07-30T02:59:39;5.63;;;3.30;;
11537;SDS011;50159;49.426;11.182;2023-07-30T03:02:06;3.13;;;2.93;;
11537;SDS011;50159;49.426;11.182;2023-07-30T03:04:33;3.30;;;3.10;;
11537;SDS011;50159;49.426;11.182;2023-07-30T03:07:00;3.13;;;2.90;;
11537;SDS011;50159;49.426;11.182;2023-07-30T03:09:27;3.57;;;3.27;;
11537;SDS011;50159;49.426;11.182;2023-07-30T03:11:54;3.07;;;2.87;;
11537;SDS011;50159;49.426;11.182;2023-07-30T03:14:21;3.13;;;2.93;;
11537;SDS011;50159;49.426;11.182;2023-07-30T03:16:48;2.67;;;2.57;;
11537;SDS011;50159;49.426;11.182;2023-07-30T03:19:15;2.80;;;2.70;;
11537;SDS011;50159;49.426;11.182;2023-07-30T03:21:42;2.53;;;2.43;;
11537;SDS011;50159;49.426;11.182;2023-07-30T03:24:09;2.30;;;2.20;;
11537;SDS011;50159;49.426;11.182;2023-07-30T03:26:36;2.90;;;2.80;;
11537;SDS011;50159;49.426;11.182;2023-07-30T03:29:03;2.93;;;2.73;;
11537;SDS011;50159;49.426;11.182;2023-07-30T03:31:29;2.97;;;2.77;;
11537;SDS011;50159;49.426;11.182;2023-07-30T03:33:57;2.67;;;2.57;;
11537;SDS011;50159;49.426;11.182;2023-07-30T03:36:24;2.93;;;2.83;;
11537;SDS011;50159;49.426;11.182;2023-07-30T03:38:51;2.90;;;2.80;;
11537;SDS011;50159;49.426;11.182;2023-07-30T03:41:17;3.13;;;2.93;;
11537;SDS011;50159;49.426;11.182;2023-07-30T03:43:44;2.60;;;2.50;;
11537;SDS011;50159;49.426;11.182;2023-07-30T03:46:11;3.07;;;2.77;;
11537;SDS011;50159;49.426;11.182;2023-07-30T03:48:38;2.57;;;2.47;;
11537;SDS011;50159;49.426;11.182;2023-07-30T03:51:05;2.80;;;2.60;;
11537;SDS011;50159;49.426;11.182;2023-07-30T03:53:33;2.53;;;2.43;;
11537;SDS011;50159;49.426;11.182;2023-07-30T03:56:00;2.80;;;2.60;;
11537;SDS011;50159;49.426;11.182;2023-07-30T03:58:28;2.80;;;2.70;;
11537;SDS011;50159;49.426;11.182;2023-07-30T04:00:56;3.00;;;2.90;;
11537;SDS011;50159;49.426;11.182;2023-07-30T04:03:23;2.90;;;2.70;;
11537;SDS011;50159;49.426;11.182;2023-07-30T04:05:50;2.97;;;2.87;;
11537;SDS011;50159;49.426;11.182;2023-07-30T04:08:17;3.00;;;2.80;;
11537;SDS011;50159;49.426;11.182;2023-07-30T04:10:44;2.87;;;2.70;;
11537;SDS011;50159;49.426;11.182;2023-07-30T04:13:11;2.83;;;2.73;;
11537;SDS011;50159;49.426;11.182;2023-07-30T04:15:38;2.63;;;2.53;;
11537;SDS011;50159;49.426;11.182;2023-07-30T04:18:05;3.60;;;3.00;;
11537;SDS011;50159;49.426;11.182;2023-07-30T04:20:31;2.77;;;2.67;;
11537;SDS011;50159;49.426;11.182;2023-07-30T04:22:58;3.17;;;2.97;;
11537;SDS011;50159;49.426;11.182;2023-07-30T04:25:25;2.80;;;2.70;;
11537;SDS011;50159;49.426;11.182;2023-07-30T04:27:52;2.50;;;2.40;;
11537;SDS011;50159;49.426;11.182;2023-07-30T04:30:19;2.27;;;2.17;;
11537;SDS011;50159;49.426;11.182;2023-07-30T04:32:46;2.97;;;2.77;;
11537;SDS011;50159;49.426;11.182;2023-07-30T04:35:12;2.60;;;2.50;;
11537;SDS011;50159;49.426;11.182;2023-07-30T04:37:39;2.37;;;2.27;;
11537;SDS011;50159;49.426;11.182;2023-07-30T04:40:06;2.53;;;2.43;;
11537;SDS011;50159;49.426;11.182;2023-07-30T04:42:34;3.53;;;2.47;;
11537;SDS011;50159;49.426;11.182;2023-07-30T04:45:01;2.47;;;2.37;;
11537;SDS011;50159;49.426;11.182;2023-07-30T04:47:30;2.83;;;2.63;;
11537;SDS011;50159;49.426;11.182;2023-07-30T04:49:57;2.37;;;2.27;;
11537;SDS011;50159;49.426;11.182;2023-07-30T04:52:23;2.33;;;2.27;;
11537;SDS011;50159;49.426;11.182;2023-07-30T04:54:50;3.10;;;3.00;;
11537;SDS011;50159;49.426;11.182;2023-07-30T04:57:17;2.70;;;2.60;;
11537;SDS011;50159;49.426;11.182;2023-07-30T04:59:44;2.80;;;2.70;;
11537;SDS011;50159;49.426;11.182;2023-07-30T05:02:10;2.73;;;2.63;;
11537;SDS011;50159;49.426;11.182;2023-07-30T05:04:37;2.70;;;2.50;;
11537;SDS011;50159;49.426;11.182;2023-07-30T05:07:04;2.47;;;2.30;;
11537;SDS011;50159;49.426;11.182;2023-07-30T05:09:31;2.77;;;2.50;;
11537;SDS011;50159;49.426;11.182;2023-07-30T05:11:58;2.90;;;2.80;;
11537;SDS011;50159;49.426;11.182;2023-07-30T05:14:25;2.97;;;2.77;;
11537;SDS011;50159;49.426;11.182;2023-07-30T05:16:52;3.00;;;2.80;;
11537;SDS011;50159;49.426;11.182;2023-07-30T05:19:18;2.80;;;2.70;;
11537;SDS011;50159;49.426;11.182;2023-07-30T05:21:45;3.37;;;3.07;;
11537;SDS011;50159;49.426;11.182;2023-07-30T05:24:12;3.67;;;3.47;;
11537;SDS011;50159;49.426;11.182;2023-07-30T05:26:39;2.37;;;2.27;;
11537;SDS011;50159;49.426;11.182;2023-07-30T05:29:05;3.73;;;3.43;;
11537;SDS011;50159;49.426;11.182;2023-07-30T05:31:32;3.13;;;2.83;;
11537;SDS011;50159;49.426;11.182;2023-07-30T05:33:59;2.80;;;2.60;;
11537;SDS011;50159;49.426;11.182;2023-07-30T05:36:26;3.20;;;3.07;;
11537;SDS011;50159;49.426;11.182;2023-07-30T05:38:53;3.23;;;3.03;;
11537;SDS011;50159;49.426;11.182;2023-07-30T05:41:20;3.10;;;2.83;;
11537;SDS011;50159;49.426;11.182;2023-07-30T05:43:47;2.73;;;2.60;;
11537;SDS011;50159;49.426;11.182;2023-07-30T05:46:15;3.10;;;2.90;;
11537;SDS011;50159;49.426;11.182;2023-07-30T05:48:42;2.93;;;2.70;;
11537;SDS011;50159;49.426;11.182;2023-07-30T05:51:09;2.63;;;2.53;;
11537;SDS011;50159;49.426;11.182;2023-07-30T05:53:35;3.27;;;3.07;;
11537;SDS011;50159;49.426;11.182;2023-07-30T05:56:02;2.70;;;2.60;;
11537;SDS011;50159;49.426;11.182;2023-07-30T05:58:29;2.80;;;2.70;;
11537;SDS011;50159;49.426;11.182;2023-07-30T06:00:56;3.00;;;2.73;;
11537;SDS011;50159;49.426;11.182;2023-07-30T06:03:23;2.80;;;2.70;;
11537;SDS011;50159;49.426;11.182;2023-07-30T06:05:50;2.60;;;2.50;;
11537;SDS011;50159;49.426;11.182;2023-07-30T06:08:17;2.87;;;2.77;;
11537;SDS011;50159;49.426;11.182;2023-07-30T06:10:44;2.30;;;2.20;;
11537;SDS011;50159;49.426;11.182;2023-07-30T06:13:12;2.40;;;2.30;;
11537;SDS011;50159;49.426;11.182;2023-07-30T06:15:39;3.20;;;2.90;;
11537;SDS011;50159;49.426;11.182;2023-07-30T06:18:06;3.23;;;2.87;;
11537;SDS011;50159;49.426;11.182;2023-07-30T06:20:33;2.20;;;2.10;;
11537;SDS011;50159;49.426;11.182;2023-07-30T06:23:00;5.10;;;2.40;;
11537;SDS011;50159;49.426;11.182;2023-07-30T06:25:27;2.50;;;2.40;;
11537;SDS011;50159;49.426;11.182;2023-07-30T06:27:54;2.33;;;2.23;;
11537;SDS011;50159;49.426;11.182;2023-07-30T06:30:23;2.80;;;2.67;;
11537;SDS011;50159;49.426;11.182;2023-07-30T06:32:50;1.70;;;1.63;;
11537;SDS011;50159;49.426;11.182;2023-07-30T06:35:17;2.00;;;2.00;;
11537;SDS011;50159;49.426;11.182;2023-07-30T06:37:44;1.80;;;1.80;;
11537;SDS011;50159;49.426;11.182;2023-07-30T06:40:11;2.07;;;2.07;;
11537;SDS011;50159;49.426;11.182;2023-07-30T06:42:38;1.80;;;1.80;;
11537;SDS011;50159;49.426;11.182;2023-07-30T06:45:05;1.90;;;1.80;;
11537;SDS011;50159;49.426;11.182;2023-07-30T06:47:32;1.90;;;1.80;;
11537;SDS011;50159;49.426;11.182;2023-07-30T06:50:02;2.60;;;2.50;;
11537;SDS011;50159;49.426;11.182;2023-07-30T06:52:31;2.40;;;2.30;;
11537;SDS011;50159;49.426;11.182;2023-07-30T06:54:58;5.73;;;2.27;;
11537;SDS011;50159;49.426;11.182;2023-07-30T06:57:24;1.80;;;1.80;;
11537;SDS011;50159;49.426;11.182;2023-07-30T06:59:51;2.20;;;2.10;;
11537;SDS011;50159;49.426;11.182;2023-07-30T07:02:18;1.93;;;1.93;;
11537;SDS011;50159;49.426;11.182;2023-07-30T07:04:45;2.53;;;2.43;;
11537;SDS011;50159;49.426;11.182;2023-07-30T07:07:12;2.10;;;2.00;;
11537;SDS011;50159;49.426;11.182;2023-07-30T07:09:38;2.53;;;2.43;;
11537;SDS011;50159;49.426;11.182;2023-07-30T07:12:05;2.37;;;2.27;;
11537;SDS011;50159;49.426;11.182;2023-07-30T07:14:33;1.70;;;1.70;;
11537;SDS011;50159;49.426;11.182;2023-07-30T07:17:00;2.03;;;1.93;;
11537;SDS011;50159;49.426;11.182;2023-07-30T07:19:27;2.03;;;2.00;;
11537;SDS011;50159;49.426;11.182;2023-07-30T07:21:54;2.10;;;2.00;;
11537;SDS011;50159;49.426;11.182;2023-07-30T07:24:20;2.10;;;2.00;;
11537;SDS011;50159;49.426;11.182;2023-07-30T07:26:47;2.37;;;2.17;;
11537;SDS011;50159;49.426;11.182;2023-07-30T07:29:14;2.27;;;2.17;;
11537;SDS011;50159;49.426;11.182;2023-07-30T07:31:41;2.13;;;2.13;;
11537;SDS011;50159;49.426;11.182;2023-07-30T07:34:08;2.00;;;1.90;;
11537;SDS011;50159;49.426;11.182;2023-07-30T07:36:36;2.13;;;2.00;;
11537;SDS011;50159;49.426;11.182;2023-07-30T07:39:04;2.17;;;2.07;;
11537;SDS011;50159;49.426;11.182;2023-07-30T07:41:30;2.00;;;2.00;;
11537;SDS011;50159;49.426;11.182;2023-07-30T07:43:57;2.20;;;2.17;;
11537;SDS011;50159;49.426;11.182;2023-07-30T07:46:24;2.27;;;2.17;;
11537;SDS011;50159;49.426;11.182;2023-07-30T07:48:53;2.13;;;2.03;;
11537;SDS011;50159;49.426;11.182;2023-07-30T07:51:20;2.00;;;1.93;;
11537;SDS011;50159;49.426;11.182;2023-07-30T07:53:47;1.83;;;1.83;;
11537;SDS011;50159;49.426;11.182;2023-07-30T07:56:14;1.70;;;1.70;;
11537;SDS011;50159;49.426;11.182;2023-07-30T07:58:40;2.00;;;2.00;;
11537;SDS011;50159;49.426;11.182;2023-07-30T08:01:09;2.10;;;2.00;;
11537;SDS011;50159;49.426;11.182;2023-07-30T08:03:35;1.70;;;1.70;;
11537;SDS011;50159;49.426;11.182;2023-07-30T08:06:02;2.10;;;1.87;;
11537;SDS011;50159;49.426;11.182;2023-07-30T08:08:32;2.20;;;2.10;;
11537;SDS011;50159;49.426;11.182;2023-07-30T08:10:58;2.20;;;2.10;;
11537;SDS011;50159;49.426;11.182;2023-07-30T08:13:35;2.00;;;1.90;;
11537;SDS011;50159;49.426;11.182;2023-07-30T08:16:02;1.80;;;1.80;;
11537;SDS011;50159;49.426;11.182;2023-07-30T08:18:29;1.70;;;1.70;;
11537;SDS011;50159;49.426;11.182;2023-07-30T08:20:56;1.77;;;1.77;;
11537;SDS011;50159;49.426;11.182;2023-07-30T08:23:23;2.07;;;2.07;;
11537;SDS011;50159;49.426;11.182;2023-07-30T08:25:49;2.03;;;1.93;;
11537;SDS011;50159;49.426;11.182;2023-07-30T08:28:18;2.07;;;2.00;;
11537;SDS011;50159;49.426;11.182;2023-07-30T08:30:45;2.23;;;2.13;;
11537;SDS011;50159;49.426;11.182;2023-07-30T08:33:12;2.13;;;2.03;;
11537;SDS011;50159;49.426;11.182;2023-07-30T08:35:39;1.80;;;1.80;;
11537;SDS011;50159;49.426;11.182;2023-07-30T08:38:06;2.30;;;2.20;;
11537;SDS011;50159;49.426;11.182;2023-07-30T08:40:33;2.50;;;1.97;;
11537;SDS011;50159;49.426;11.182;2023-07-30T08:43:00;2.40;;;2.30;;
11537;SDS011;50159;49.426;11.182;2023-07-30T08:45:29;2.20;;;2.10;;
11537;SDS011;50159;49.426;11.182;2023-07-30T08:47:56;2.37;;;2.27;;
11537;SDS011;50159;49.426;11.182;2023-07-30T08:50:23;2.03;;;2.03;;
11537;SDS011;50159;49.426;11.182;2023-07-30T08:52:51;1.77;;;1.77;;
11537;SDS011;50159;49.426;11.182;2023-07-30T08:55:18;2.23;;;2.13;;
11537;SDS011;50159;49.426;11.182;2023-07-30T08:57:45;2.00;;;2.00;;
11537;SDS011;50159;49.426;11.182;2023-07-30T09:00:15;2.13;;;2.03;;
11537;SDS011;50159;49.426;11.182;2023-07-30T09:02:48;1.80;;;1.80;;
11537;SDS011;50159;49.426;11.182;2023-07-30T09:05:19;2.10;;;2.00;;
11537;SDS011;50159;49.426;11.182;2023-07-30T09:07:47;1.80;;;1.80;;
11537;SDS011;50159;49.426;11.182;2023-07-30T09:10:14;2.00;;;2.00;;
11537;SDS011;50159;49.426;11.182;2023-07-30T09:12:42;1.60;;;1.53;;
11537;SDS011;50159;49.426;11.182;2023-07-30T09:15:09;1.63;;;1.63;;
11537;SDS011;50159;49.426;11.182;2023-07-30T09:17:36;1.93;;;1.90;;
11537;SDS011;50159;49.426;11.182;2023-07-30T09:20:04;1.77;;;1.77;;
11537;SDS011;50159;49.426;11.182;2023-07-30T09:22:32;1.70;;;1.70;;
11537;SDS011;50159;49.426;11.182;2023-07-30T09:25:06;2.20;;;2.03;;
11537;SDS011;50159;49.426;11.182;2023-07-30T09:27:34;1.63;;;1.63;;
11537;SDS011;50159;49.426;11.182;2023-07-30T09:30:02;1.77;;;1.77;;
11537;SDS011;50159;49.426;11.182;2023-07-30T09:32:32;1.80;;;1.80;;
11537;SDS011;50159;49.426;11.182;2023-07-30T09:35:04;1.80;;;1.80;;
11537;SDS011;50159;49.426;11.182;2023-07-30T09:37:36;2.10;;;1.90;;
11537;SDS011;50159;49.426;11.182;2023-07-30T09:40:06;2.20;;;2.10;;
11537;SDS011;50159;49.426;11.182;2023-07-30T09:42:35;1.70;;;1.70;;
11537;SDS011;50159;49.426;11.182;2023-07-30T09:45:08;1.83;;;1.80;;
11537;SDS011;50159;49.426;11.182;2023-07-30T09:47:52;3.13;;;2.00;;
11537;SDS011;50159;49.426;11.182;2023-07-30T09:50:22;2.07;;;1.97;;
11537;SDS011;50159;49.426;11.182;2023-07-30T09:52:49;1.90;;;1.80;;
11537;SDS011;50159;49.426;11.182;2023-07-30T09:55:17;1.60;;;1.60;;
11537;SDS011;50159;49.426;11.182;2023-07-30T09:57:47;1.60;;;1.60;;
11537;SDS011;50159;49.426;11.182;2023-07-30T10:00:14;1.60;;;1.60;;
11537;SDS011;50159;49.426;11.182;2023-07-30T10:02:41;1.50;;;1.50;;
11537;SDS011;50159;49.426;11.182;2023-07-30T10:05:17;1.70;;;1.70;;
11537;SDS011;50159;49.426;11.182;2023-07-30T10:07:51;1.80;;;1.70;;
11537;SDS011;50159;49.426;11.182;2023-07-30T10:10:24;1.60;;;1.60;;
11537;SDS011;50159;49.426;11.182;2023-07-30T10:13:00;1.73;;;1.73;;
11537;SDS011;50159;49.426;11.182;2023-07-30T10:15:37;1.60;;;1.60;;
11537;SDS011;50159;49.426;11.182;2023-07-30T10:18:04;1.43;;;1.40;;
11537;SDS011;50159;49.426;11.182;2023-07-30T10:20:32;1.80;;;1.80;;
11537;SDS011;50159;49.426;11.182;2023-07-30T10:22:59;1.67;;;1.67;;
11537;SDS011;50159;49.426;11.182;2023-07-30T10:27:57;1.87;;;1.80;;
11537;SDS011;50159;49.426;11.182;2023-07-30T10:30:29;1.80;;;1.70;;
11537;SDS011;50159;49.426;11.182;2023-07-30T10:33:06;1.50;;;1.50;;
11537;SDS011;50159;49.426;11.182;2023-07-30T10:35:45;1.87;;;1.70;;
11537;SDS011;50159;49.426;11.182;2023-07-30T10:41:10;1.70;;;1.60;;
11537;SDS011;50159;49.426;11.182;2023-07-30T10:43:41;1.60;;;1.50;;
11537;SDS011;50159;49.426;11.182;2023-07-30T10:46:16;3.10;;;1.70;;
11537;SDS011;50159;49.426;11.182;2023-07-30T10:48:45;1.60;;;1.50;;
11537;SDS011;50159;49.426;11.182;2023-07-30T10:51:18;1.60;;;1.60;;
11537;SDS011;50159;49.426;11.182;2023-07-30T10:53:50;1.83;;;1.73;;
11537;SDS011;50159;49.426;11.182;2023-07-30T10:56:18;2.97;;;1.93;;
11537;SDS011;50159;49.426;11.182;2023-07-30T10:58:53;1.90;;;1.80;;
11537;SDS011;50159;49.426;11.182;2023-07-30T11:01:23;1.73;;;1.63;;
11537;SDS011;50159;49.426;11.182;2023-07-30T11:03:52;1.93;;;1.90;;
11537;SDS011;50159;49.426;11.182;2023-07-30T11:06:22;1.53;;;1.53;;
11537;SDS011;50159;49.426;11.182;2023-07-30T11:08:53;1.60;;;1.60;;
11537;SDS011;50159;49.426;11.182;2023-07-30T11:11:20;2.13;;;1.70;;
11537;SDS011;50159;49.426;11.182;2023-07-30T11:13:47;2.03;;;1.80;;
11537;SDS011;50159;49.426;11.182;2023-07-30T11:16:14;1.47;;;1.47;;
11537;SDS011;50159;49.426;11.182;2023-07-30T11:18:42;1.97;;;1.87;;
11537;SDS011;50159;49.426;11.182;2023-07-30T11:21:11;1.67;;;1.57;;
11537;SDS011;50159;49.426;11.182;2023-07-30T11:23:40;1.53;;;1.43;;
11537;SDS011;50159;49.426;11.182;2023-07-30T11:26:13;1.57;;;1.57;;
11537;SDS011;50159;49.426;11.182;2023-07-30T11:28:45;1.70;;;1.60;;
11537;SDS011;50159;49.426;11.182;2023-07-30T11:31:14;1.30;;;1.30;;
11537;SDS011;50159;49.426;11.182;2023-07-30T11:33:47;1.60;;;1.50;;
11537;SDS011;50159;49.426;11.182;2023-07-30T11:36:19;1.40;;;1.40;;
11537;SDS011;50159;49.426;11.182;2023-07-30T11:38:48;1.57;;;1.57;;
11537;SDS011;50159;49.426;11.182;2023-07-30T11:41:19;1.40;;;1.40;;
11537;SDS011;50159;49.426;11.182;2023-07-30T11:43:48;1.67;;;1.57;;
11537;SDS011;50159;49.426;11.182;2023-07-30T11:46:16;1.53;;;1.40;;
11537;SDS011;50159;49.426;11.182;2023-07-30T11:48:49;1.90;;;1.80;;
11537;SDS011;50159;49.426;11.182;2023-07-30T11:51:23;1.40;;;1.40;;
11537;SDS011;50159;49.426;11.182;2023-07-30T11:53:55;1.70;;;1.70;;
11537;SDS011;50159;49.426;11.182;2023-07-30T11:56:26;1.50;;;1.50;;
11537;SDS011;50159;49.426;11.182;2023-07-30T11:59:04;1.40;;;1.40;;
11537;SDS011;50159;49.426;11.182;2023-07-30T12:01:34;1.60;;;1.60;;
11537;SDS011;50159;49.426;11.182;2023-07-30T12:04:04;1.80;;;1.70;;
11537;SDS011;50159;49.426;11.182;2023-07-30T12:09:34;3.40;;;2.83;;
11537;SDS011;50159;49.426;11.182;2023-07-30T12:12:01;3.47;;;3.20;;
11537;SDS011;50159;49.426;11.182;2023-07-30T12:14:29;5.83;;;5.20;;
11537;SDS011;50159;49.426;11.182;2023-07-30T12:17:19;7.43;;;6.73;;
11537;SDS011;50159;49.426;11.182;2023-07-30T12:19:47;27.73;;;21.07;;
11537;SDS011;50159;49.426;11.182;2023-07-30T12:22:14;30.67;;;22.40;;
11537;SDS011;50159;49.426;11.182;2023-07-30T12:24:41;57.80;;;36.10;;
11537;SDS011;50159;49.426;11.182;2023-07-30T12:27:08;70.93;;;43.50;;
11537;SDS011;50159;49.426;11.182;2023-07-30T12:29:35;37.13;;;25.20;;
11537;SDS011;50159;49.426;11.182;2023-07-30T12:32:02;4.90;;;4.50;;
11537;SDS011;50159;49.426;11.182;2023-07-30T12:34:30;2.50;;;2.40;;
11537;SDS011;50159;49.426;11.182;2023-07-30T12:36:56;1.80;;;1.80;;
11537;SDS011;50159;49.426;11.182;2023-07-30T12:39:24;1.90;;;1.80;;
11537;SDS011;50159;49.426;11.182;2023-07-30T12:41:51;1.97;;;1.87;;
11537;SDS011;50159;49.426;11.182;2023-07-30T12:44:18;2.00;;;2.00;;
11537;SDS011;50159;49.426;11.182;2023-07-30T12:46:45;2.00;;;1.90;;
11537;SDS011;50159;49.426;11.182;2023-07-30T12:49:11;1.80;;;1.70;;
11537;SDS011;50159;49.426;11.182;2023-07-30T12:51:38;1.80;;;1.70;;
11537;SDS011;50159;49.426;11.182;2023-07-30T12:54:06;2.10;;;2.00;;
11537;SDS011;50159;49.426;11.182;2023-07-30T12:56:32;1.80;;;1.80;;
11537;SDS011;50159;49.426;11.182;2023-07-30T12:59:02;2.17;;;2.07;;
11537;SDS011;50159;49.426;11.182;2023-07-30T13:01:29;1.93;;;1.93;;
11537;SDS011;50159;49.426;11.182;2023-07-30T13:03:57;1.90;;;1.90;;
11537;SDS011;50159;49.426;11.182;2023-07-30T13:06:24;1.50;;;1.50;;
11537;SDS011;50159;49.426;11.182;2023-07-30T13:08:51;2.07;;;1.97;;
11537;SDS011;50159;49.426;11.182;2023-07-30T13:11:19;2.03;;;1.93;;
11537;SDS011;50159;49.426;11.182;2023-07-30T13:13:46;2.40;;;2.00;;
11537;SDS011;50159;49.426;11.182;2023-07-30T13:16:13;1.70;;;1.70;;
11537;SDS011;50159;49.426;11.182;2023-07-30T13:18:40;1.90;;;1.80;;
11537;SDS011;50159;49.426;11.182;2023-07-30T13:21:07;1.60;;;1.60;;
11537;SDS011;50159;49.426;11.182;2023-07-30T13:23:33;2.37;;;2.27;;
11537;SDS011;50159;49.426;11.182;2023-07-30T13:26:00;1.93;;;1.83;;
11537;SDS011;50159;49.426;11.182;2023-07-30T13:28:29;3.17;;;1.97;;
11537;SDS011;50159;49.426;11.182;2023-07-30T13:30:56;2.30;;;2.10;;
11537;SDS011;50159;49.426;11.182;2023-07-30T13:33:23;2.33;;;1.87;;
11537;SDS011;50159;49.426;11.182;2023-07-30T13:35:50;1.77;;;1.77;;
11537;SDS011;50159;49.426;11.182;2023-07-30T13:38:17;1.90;;;1.80;;
11537;SDS011;50159;49.426;11.182;2023-07-30T13:40:44;2.20;;;1.90;;
11537;SDS011;50159;49.426;11.182;2023-07-30T13:43:11;2.20;;;2.10;;
11537;SDS011;50159;49.426;11.182;2023-07-30T13:45:38;2.67;;;1.80;;
11537;SDS011;50159;49.426;11.182;2023-07-30T13:48:05;1.90;;;1.80;;
11537;SDS011;50159;49.426;11.182;2023-07-30T13:50:32;1.73;;;1.73;;
11537;SDS011;50159;49.426;11.182;2023-07-30T13:52:58;1.90;;;1.90;;
11537;SDS011;50159;49.426;11.182;2023-07-30T13:55:25;4.83;;;1.70;;
11537;SDS011;50159;49.426;11.182;2023-07-30T13:57:52;2.10;;;2.00;;
11537;SDS011;50159;49.426;11.182;2023-07-30T14:00:19;2.10;;;2.00;;
11537;SDS011;50159;49.426;11.182;2023-07-30T14:02:46;1.90;;;1.80;;
11537;SDS011;50159;49.426;11.182;2023-07-30T14:05:14;1.50;;;1.50;;
11537;SDS011;50159;49.426;11.182;2023-07-30T14:07:40;1.50;;;1.50;;
11537;SDS011;50159;49.426;11.182;2023-07-30T14:10:08;1.67;;;1.67;;
11537;SDS011;50159;49.426;11.182;2023-07-30T14:12:35;2.00;;;1.90;;
11537;SDS011;50159;49.426;11.182;2023-07-30T14:15:02;1.60;;;1.60;;
11537;SDS011;50159;49.426;11.182;2023-07-30T14:17:29;2.33;;;2.00;;
11537;SDS011;50159;49.426;11.182;2023-07-30T14:19:56;2.33;;;1.93;;
11537;SDS011;50159;49.426;11.182;2023-07-30T14:22:23;1.80;;;1.70;;
11537;SDS011;50159;49.426;11.182;2023-07-30T14:24:50;2.00;;;1.90;;
11537;SDS011;50159;49.426;11.182;2023-07-30T14:27:17;2.00;;;1.63;;
11537;SDS011;50159;49.426;11.182;2023-07-30T14:29:44;1.80;;;1.70;;
11537;SDS011;50159;49.426;11.182;2023-07-30T14:32:11;1.90;;;1.80;;
11537;SDS011;50159;49.426;11.182;2023-07-30T14:34:38;1.40;;;1.40;;
11537;SDS011;50159;49.426;11.182;2023-07-30T14:37:05;1.83;;;1.80;;
11537;SDS011;50159;49.426;11.182;2023-07-30T14:39:35;1.50;;;1.50;;
11537;SDS011;50159;49.426;11.182;2023-07-30T14:42:02;1.63;;;1.20;;
11537;SDS011;50159;49.426;11.182;2023-07-30T14:44:29;1.20;;;1.20;;
11537;SDS011;50159;49.426;11.182;2023-07-30T14:46:56;4.50;;;1.53;;